Impacts TAF Board INFO
FOR SITUATIONAL AWARENESS. NOT TO BE USED FOR FLIGHT PLANNING PURPOSES.
IDs:

KCLE - Cleveland/Hopkins In, OH, US

Issued at 2334 UTC 18 Nov 2017
Updated at 0111 UTC 19 Nov 2017
Potential Impact None Slight Moderate High
Time0051Z 19/02Z 19/03Z 19/04Z 19/05Z 19/06Z 19/07Z 19/08Z 19/09Z 19/10Z 19/11Z 19/12Z 19/13Z 19/14Z>>
Type OBS PRVL PRVL PRVL PRVL PRVL PRVL PRVL PRVL PRVL PRVL PRVL PRVL PRVL
VIS 4 6 3 3 3 3 3 >6 >6 >6 >6 >6 >6 >6
CIG 6 15 8 8 8 8 8 15 15 15 15 15 25 25
Cover OVC OVC OVC OVC OVC OVC OVC OVC OVC OVC OVC OVC OVC OVC
FltCat IFR MVFR IFR IFR IFR IFR IFR MVFR MVFR MVFR MVFR MVFR MVFR MVFR
WX -RA BR -SHRA -SHRA -SHRA -SHRA -SHRA -SHRA VCSH VCSH VCSH VCSH VCSH -- --
WDir 300 300 310 310 310 310 310 310 310 310 310 310 300 300
WSpd 18 15 20 20 20 20 20 20 20 20 20 20 18 18
WGst 25 30 35 35 35 35 35 38 38 38 38 38 30 30

Raw TAF
KCLE 182334Z 1900/2006 18015G30KT 4SM SHRA OVC035
  FM190100 30015G30KT 6SM -SHRA OVC015
  FM190300 31020G35KT 3SM -SHRA OVC008
  FM190800 31020G38KT P6SM VCSH OVC015
  FM191300 30018G30KT P6SM OVC025


Raw METAR
KCLE 190051Z 30018G25KT 4SM -RA BR OVC006 12/11 A2921 RMK AO2 WSHFT 0014 RAB15 SLP890 P0004 T01170111 $
KCLE 190039Z 28012KT 4SM -RA BR BKN007 OVC020 12/12 A2919 RMK AO2 WSHFT 0014 RAB15 P0004 T01220117 $
KCLE 190028Z 28016KT 3SM RA BR FEW005 SCT009 OVC021 13/12 A2920 RMK AO2 WSHFT 0014 RAB15 PRESRR P0001 T01330122 $
KCLE 190002Z 20014KT 10SM BKN025 BKN060 OVC100 13/12 A2917 RMK AO2 T01330122 $
KCLE 182351Z 20014KT 10SM FEW025 SCT060 OVC080 13/12 A2918 RMK AO2 RAE50 SLP880 P0010 60135 T01330122 10133 20100 56040 $
KCLE 182251Z 18013G22KT 6SM RA BR OVC070 12/11 A2918 RMK AO2 PK WND 16027/2158 SLP881 P0024 T01220106 $

METAR Board
Radar Display
Forecast Discussion

FOR SITUATIONAL AWARENESS. NOT TO BE USED FOR FLIGHT PLANNING PURPOSES.